• Join FlightAware (Why Join?)
  • Login
  • US Flag 
03:25AM EDT


 

Airport Tracker/Info


-or-


 

Live Flight TrackerFlight Track Log ✈ THA106 ✈ 01-May-2012 ✈ VTBS / BKK - VTCC / CNX

Flight Track Log - Related Links

Times and Time Zones

All times are in EDT time to prevent confusion due to time zone crossing. See the THA106 flight status page for this flight to view local times or setup timezone preferences in your user account.

Time Position Orientation Groundspeed Altitude Reporting Facility
EDT Latitude Longitude Course Direction KTS MPH feet Rate Location/Type
11:51PM 13.7071 100.7384 342° North  Level Estimated
11:52PM 13.8110 100.7029 342° North  Level Estimated
11:53PM 13.9148 100.6673 342° North  Level Estimated
11:54PM 14.0187 100.6317 342° North  Level Estimated
11:55PM 14.1226 100.5960 342° North  Level Estimated
11:56PM 14.2264 100.5604 342° North  Level Estimated
11:57PM 14.3303 100.5247 342° North  Level Estimated
11:58PM 14.4341 100.4889 342° North  Level Estimated
11:59PM 14.5380 100.4531 342° North  Level Estimated
12:00AM 14.6418 100.4173 342° North  Level Estimated
12:01AM 14.7456 100.3815 342° North  Level Estimated
12:02AM 14.8495 100.3456 342° North  Level Estimated
12:03AM 14.9533 100.3097 342° North  Level Estimated
12:04AM 15.0571 100.2738 342° North  Level Estimated
12:05AM 15.1609 100.2378 341° North  Level Estimated
12:06AM 15.2647 100.2018 341° North  Level Estimated
12:07AM 15.3685 100.1657 341° North  Level Estimated
12:08AM 15.4723 100.1297 341° North  Level Estimated
12:09AM 15.5761 100.0935 341° North  Level Estimated
12:10AM 15.6799 100.0574 341° North  Level Estimated
12:11AM 15.7836 100.0212 341° North  Level Estimated
12:12AM 15.8874 99.9849 341° North  Level Estimated
12:13AM 15.9912 99.9487 341° North  Level Estimated
12:14AM 16.0949 99.9124 341° North  Level Estimated
12:15AM 16.1987 99.8760 341° North  Level Estimated
12:16AM 16.3024 99.8396 341° North  Level Estimated
12:17AM 16.4062 99.8032 341° North  Level Estimated
12:18AM 16.5099 99.7668 341° North  Level Estimated
12:19AM 16.6136 99.7303 341° North  Level Estimated
12:20AM 16.7173 99.6937 341° North  Level Estimated
12:21AM 16.8210 99.6571 341° North  Level Estimated
12:22AM 16.9247 99.6205 341° North  Level Estimated
12:23AM 17.0284 99.5839 341° North  Level Estimated
12:24AM 17.1321 99.5472 341° North  Level Estimated
12:25AM 17.2358 99.5104 341° North  Level Estimated
12:26AM 17.3395 99.4736 341° North  Level Estimated
12:27AM 17.4432 99.4368 341° North  Level Estimated
12:28AM 17.5468 99.4000 341° North  Level Estimated
12:29AM 17.6505 99.3631 341° North  Level Estimated
12:30AM 17.7541 99.3261 341° North  Level Estimated
12:31AM 17.8578 99.2891 341° North  Level Estimated
12:32AM 17.9614 99.2521 341° North  Level Estimated
12:33AM 18.0650 99.2150 341° North  Level Estimated
12:34AM 18.1687 99.1779 341° North  Level Estimated
12:35AM 18.2723 99.1407 341° North  Level Estimated
12:36AM 18.3759 99.1035 341° North  Level Estimated
12:37AM 18.4795 99.0662 341° North  Level Estimated
12:38AM 18.5831 99.0289 341° North  Level Estimated
12:39AM 18.6867 98.9916 341° North  Level Estimated
12:40AM 18.7902 98.9542 161° South  Level Estimated
12:41AM 18.6867 98.9916 341° North  Level Estimated
12:42AM 18.7902 98.9542 161° South  Level Estimated
12:43AM 18.6867 98.9916 341° North  Level Estimated
12:44AM 18.7902 98.9542 161° South  Level Estimated
12:45AM 18.6867 98.9916 341° North  Level Estimated
12:46AM 18.7902 98.9542 161° South  Level Estimated
12:47AM 18.6867 98.9916 341° North  Level Estimated
12:48AM 18.7902 98.9542 161° South  Level Estimated
12:49AM 18.6867 98.9916 161° South  Level Estimated